Time;durP1;ratioP1;P1;durP2;ratioP2;P2;SDS_P1;SDS_P2;PMS_P1;PMS_P2;Temp;Humidity;BMP_temperature;BMP_pressure;BME280_temperature;BME280_humidity;BME280_pressure;Samples;Min_cycle;Max_cycle;Signal;HPM_P1;HPM_P2
2021/08/20 00:02:13;;;;;;;;;;;16.20;84.40;;;;;;5072490;28;19927;-65
2021/08/20 00:04:38;;;;;;;;;;;16.10;84.30;;;;;;5073113;28;19986;-69
2021/08/20 00:07:04;;;;;;;;;;;16.00;84.40;;;;;;5072633;28;20524;-64
2021/08/20 00:09:30;;;;;;;;;;;16.00;84.50;;;;;;5072387;28;20493;-64
2021/08/20 00:11:55;;;;;;;;;;;16.00;84.80;;;;;;5072497;28;20288;-64
2021/08/20 00:14:21;;;;;;;;;;;16.00;84.90;;;;;;5071998;28;19917;-66
2021/08/20 00:16:46;;;;;;;;;;;16.00;84.90;;;;;;5072251;28;19970;-63
2021/08/20 00:19:12;;;;;;;;;;;16.00;85.00;;;;;;5072392;28;19917;-64
2021/08/20 00:21:38;;;;;;;;;;;15.90;85.00;;;;;;5071879;28;19924;-64
2021/08/20 00:24:04;;;;;;;;;;;15.90;84.90;;;;;;5072355;28;20353;-64
2021/08/20 00:26:32;;;;;;;;;;;15.80;85.00;;;;;;5071563;28;20281;-64
2021/08/20 00:28:57;;;;;;;;;;;15.80;85.20;;;;;;5071468;28;19963;-64
2021/08/20 00:31:23;;;;;;;;;;;15.80;85.30;;;;;;5071998;28;19916;-64
2021/08/20 00:33:48;;;;;;;;;;;15.70;85.20;;;;;;5070678;28;19924;-65
2021/08/20 00:36:14;;;;;;;;;;;15.70;85.30;;;;;;5054014;28;19916;-64
2021/08/20 00:38:40;;;;;;;;;;;15.60;85.40;;;;;;5071583;28;19916;-64
2021/08/20 00:41:09;;;;;;;;;;;15.50;85.50;;;;;;5071551;28;19954;-64
2021/08/20 00:43:34;;;;;;;;;;;15.50;85.70;;;;;;5071802;28;19917;-65
2021/08/20 00:46:00;;;;;;;;;;;15.40;85.80;;;;;;5071795;28;19923;-65
2021/08/20 00:48:26;;;;;;;;;;;15.40;86.00;;;;;;5071228;28;19916;-64
2021/08/20 00:50:57;;;;;;;;;;;15.30;86.10;;;;;;5071897;28;19923;-64
2021/08/20 00:53:23;;;;;;;;;;;15.20;86.20;;;;;;5071392;28;19917;-65
2021/08/20 00:55:49;;;;;;;;;;;15.20;86.30;;;;;;5071877;28;19920;-65
2021/08/20 00:58:15;;;;;;;;;;;15.20;86.50;;;;;;5053517;28;19970;-64
2021/08/20 01:00:41;;;;;;;;;;;15.10;86.70;;;;;;5053246;28;19928;-64
2021/08/20 01:03:07;;;;;;;;;;;15.10;86.80;;;;;;5053800;28;19916;-64
2021/08/20 01:05:33;;;;;;;;;;;15.10;86.90;;;;;;5053689;28;19923;-63
2021/08/20 01:08:00;;;;;;;;;;;15.00;86.90;;;;;;5053258;28;19916;-64
2021/08/20 01:10:25;;;;;;;;;;;15.00;87.10;;;;;;5053839;28;20515;-64
2021/08/20 01:12:51;;;;;;;;;;;15.70;87.60;;;;;;5053104;28;20442;-63
2021/08/20 01:15:17;;;;;;;;;;;14.80;87.20;;;;;;5053585;28;19970;-65
2021/08/20 01:17:47;;;;;;;;;;;14.80;87.50;;;;;;5070023;28;19917;-63
2021/08/20 01:20:14;;;;;;;;;;;14.70;87.60;;;;;;5053272;28;19966;-64
2021/08/20 01:22:40;;;;;;;;;;;14.70;87.90;;;;;;5053439;28;19921;-65
2021/08/20 01:25:09;;;;;;;;;;;14.70;88.30;;;;;;5053071;28;19920;-65
2021/08/20 01:27:36;;;;;;;;;;;14.70;88.60;;;;;;5053155;28;19920;-64
2021/08/20 01:30:05;;;;;;;;;;;14.70;88.80;;;;;;5053437;28;19920;-64
2021/08/20 01:32:31;;;;;;;;;;;14.70;89.00;;;;;;5052749;28;19974;-64
2021/08/20 01:34:57;;;;;;;;;;;14.80;89.40;;;;;;5053253;28;20369;-64
2021/08/20 01:37:23;;;;;;;;;;;14.80;89.10;;;;;;5070994;28;19920;-64
2021/08/20 01:39:48;;;;;;;;;;;14.80;89.00;;;;;;5053043;28;19917;-64
2021/08/20 01:42:14;;;;;;;;;;;14.80;89.10;;;;;;5053039;28;19924;-64
2021/08/20 01:44:41;;;;;;;;;;;14.80;89.40;;;;;;5052949;28;19966;-64
2021/08/20 01:47:10;;;;;;;;;;;14.70;89.70;;;;;;5070978;28;19937;-64
2021/08/20 01:49:37;;;;;;;;;;;14.80;89.90;;;;;;5055058;28;19916;-64
2021/08/20 01:52:03;;;;;;;;;;;14.80;90.00;;;;;;5074651;28;19916;-64
2021/08/20 01:54:31;;;;;;;;;;;14.90;90.10;;;;;;5057170;28;20339;-64
2021/08/20 01:56:56;;;;;;;;;;;14.90;90.10;;;;;;5074270;28;19916;-64
2021/08/20 01:59:22;;;;;;;;;;;14.90;90.10;;;;;;5057174;28;19916;-64
2021/08/20 02:01:48;;;;;;;;;;;15.00;90.20;;;;;;5074955;28;19920;-64
2021/08/20 02:04:14;;;;;;;;;;;15.00;90.20;;;;;;5078466;22;19924;-61
2021/08/20 02:06:40;;;;;;;;;;;15.00;90.20;;;;;;5056680;28;20265;-62
2021/08/20 02:09:06;;;;;;;;;;;15.10;90.20;;;;;;5056755;28;20363;-61
2021/08/20 02:11:34;;;;;;;;;;;15.10;90.30;;;;;;5056031;28;20342;-66
2021/08/20 02:14:01;;;;;;;;;;;15.10;90.30;;;;;;5056839;28;19916;-61
2021/08/20 02:16:30;;;;;;;;;;;15.10;90.30;;;;;;5040191;28;20534;-61
2021/08/20 02:18:55;;;;;;;;;;;15.10;90.30;;;;;;5056305;28;19916;-61
2021/08/20 02:21:25;;;;;;;;;;;15.10;90.40;;;;;;5056640;28;20334;-62
2021/08/20 02:23:53;;;;;;;;;;;15.10;90.40;;;;;;5056075;28;19917;-61
2021/08/20 02:26:21;;;;;;;;;;;15.10;90.40;;;;;;5056634;28;20433;-61
2021/08/20 02:28:47;;;;;;;;;;;15.10;90.40;;;;;;5056381;28;19920;-62
2021/08/20 02:31:12;;;;;;;;;;;15.10;90.50;;;;;;5055934;28;19938;-62
2021/08/20 02:33:40;;;;;;;;;;;15.10;90.50;;;;;;5056308;28;19924;-61
2021/08/20 02:36:07;;;;;;;;;;;15.20;90.50;;;;;;5055886;28;19924;-61
2021/08/20 02:38:33;;;;;;;;;;;15.20;90.60;;;;;;5056085;28;19917;-61
2021/08/20 02:41:00;;;;;;;;;;;15.20;90.60;;;;;;5056225;28;19921;-62
2021/08/20 02:43:26;;;;;;;;;;;15.20;90.60;;;;;;5055971;28;20283;-62
2021/08/20 02:45:53;;;;;;;;;;;15.20;90.60;;;;;;5056510;28;19917;-62
2021/08/20 02:48:21;;;;;;;;;;;15.10;90.60;;;;;;5041211;28;20007;-62
2021/08/20 02:50:47;;;;;;;;;;;15.10;90.70;;;;;;5060956;28;19958;-65
2021/08/20 02:53:13;;;;;;;;;;;15.10;90.70;;;;;;5056260;28;19947;-62
2021/08/20 02:55:39;;;;;;;;;;;15.10;90.70;;;;;;5038872;28;20309;-62
2021/08/20 02:58:05;;;;;;;;;;;15.10;90.80;;;;;;5039014;28;20425;-62
2021/08/20 03:00:35;;;;;;;;;;;15.10;90.90;;;;;;5055018;28;19917;-61
2021/08/20 03:03:01;;;;;;;;;;;15.10;90.90;;;;;;5055843;28;19939;-61
2021/08/20 03:05:27;;;;;;;;;;;15.10;91.00;;;;;;5055705;28;19999;-61
2021/08/20 03:07:53;;;;;;;;;;;15.10;91.00;;;;;;5072999;28;20384;-62
2021/08/20 03:10:20;;;;;;;;;;;15.10;91.00;;;;;;5055744;28;20001;-62
2021/08/20 03:12:46;;;;;;;;;;;15.10;91.10;;;;;;5055755;28;20403;-62
2021/08/20 03:15:12;;;;;;;;;;;15.10;91.20;;;;;;5055167;28;19917;-62
2021/08/20 03:17:38;;;;;;;;;;;15.10;91.20;;;;;;5055128;28;20304;-62
2021/08/20 03:20:08;;;;;;;;;;;15.10;91.20;;;;;;5055254;28;20307;-61
2021/08/20 03:22:34;;;;;;;;;;;15.10;91.20;;;;;;5055467;28;19974;-62
2021/08/20 03:25:04;;;;;;;;;;;15.10;91.30;;;;;;5054941;28;19920;-60
2021/08/20 03:27:31;;;;;;;;;;;15.10;91.40;;;;;;5055249;28;19917;-62
2021/08/20 03:30:16;;;;;;;;;;;15.00;91.40;;;;;;5055509;28;20435;-62
2021/08/20 03:32:58;;;;;;;;;;;15.10;91.50;;;;;;5055365;28;19917;-61
2021/08/20 03:35:24;;;;;;;;;;;15.00;91.50;;;;;;5038668;28;20042;-62
2021/08/20 03:37:50;;;;;;;;;;;15.00;91.50;;;;;;5054470;28;19917;-61
2021/08/20 03:40:24;;;;;;;;;;;15.00;91.50;;;;;;5039237;28;19966;-61
2021/08/20 03:42:54;;;;;;;;;;;15.00;91.60;;;;;;5054926;28;19920;-61
2021/08/20 03:45:32;;;;;;;;;;;15.00;91.70;;;;;;5055083;28;20388;-62
2021/08/20 03:47:59;;;;;;;;;;;15.00;91.70;;;;;;5037773;28;20273;-62
2021/08/20 03:50:25;;;;;;;;;;;15.00;91.80;;;;;;5054954;28;19990;-61
2021/08/20 03:52:50;;;;;;;;;;;15.00;91.80;;;;;;5072894;28;20296;-61
2021/08/20 03:55:16;;;;;;;;;;;15.00;91.80;;;;;;5054378;28;19916;-61
2021/08/20 03:58:02;;;;;;;;;;;15.00;91.80;;;;;;5072504;28;20322;-61
2021/08/20 04:00:28;;;;;;;;;;;15.00;91.90;;;;;;5054341;28;19916;-63
2021/08/20 04:03:00;;;;;;;;;;;15.00;91.90;;;;;;5054864;28;19916;-62
2021/08/20 04:05:27;;;;;;;;;;;15.00;92.00;;;;;;5053975;28;20050;-61
2021/08/20 04:08:04;;;;;;;;;;;15.00;92.00;;;;;;5054395;28;20009;-62
2021/08/20 04:10:49;;;;;;;;;;;15.00;92.10;;;;;;5040161;28;19966;-62
2021/08/20 04:13:39;;;;;;;;;;;15.00;92.10;;;;;;5049698;28;19924;-62
2021/08/20 04:16:04;;;;;;;;;;;15.00;92.20;;;;;;5037673;28;19939;-61
2021/08/20 04:18:30;;;;;;;;;;;15.00;92.20;;;;;;5071862;28;20376;-61
2021/08/20 04:20:56;;;;;;;;;;;15.00;92.30;;;;;;5053948;28;20467;-62
2021/08/20 04:23:22;;;;;;;;;;;15.00;92.30;;;;;;5054377;28;19948;-61
2021/08/20 04:25:54;;;;;;;;;;;15.00;92.30;;;;;;5054285;28;19962;-62
2021/08/20 04:28:49;;;;;;;;;;;15.00;92.30;;;;;;5068134;28;19931;-62
2021/08/20 04:31:25;;;;;;;;;;;15.00;92.30;;;;;;5054311;28;19917;-62
2021/08/20 04:34:13;;;;;;;;;;;15.00;92.40;;;;;;5060465;28;19944;-62
2021/08/20 04:36:46;;;;;;;;;;;15.00;92.40;;;;;;5071769;28;20038;-62
2021/08/20 04:39:30;;;;;;;;;;;15.00;92.50;;;;;;5071560;28;22184;-61
2021/08/20 04:42:04;;;;;;;;;;;15.00;92.60;;;;;;5054046;28;19943;-61
2021/08/20 04:44:44;;;;;;;;;;;15.10;92.60;;;;;;5053645;28;20295;-61
2021/08/20 04:47:45;;;;;;;;;;;15.10;92.70;;;;;;4950949;29;19925;-61
2021/08/20 04:50:30;;;;;;;;;;;15.10;92.60;;;;;;5025312;28;19951;-62
2021/08/20 04:53:15;;;;;;;;;;;15.10;92.70;;;;;;5014003;28;19917;-62
2021/08/20 04:55:52;;;;;;;;;;;15.10;92.70;;;;;;5014337;28;19918;-61
2021/08/20 04:58:18;;;;;;;;;;;15.10;92.70;;;;;;5031228;28;19917;-62
2021/08/20 05:00:45;;;;;;;;;;;15.10;92.70;;;;;;5037136;28;19954;-61
2021/08/20 05:03:10;;;;;;;;;;;15.10;92.70;;;;;;5033021;28;19988;-61
2021/08/20 05:05:36;;;;;;;;;;;15.10;92.80;;;;;;5033798;28;20640;-62
2021/08/20 05:08:01;;;;;;;;;;;15.20;92.90;;;;;;5051259;28;19913;-62
2021/08/20 05:10:29;;;;;;;;;;;15.20;92.90;;;;;;5051099;28;20381;-62
2021/08/20 05:12:55;;;;;;;;;;;15.30;93.00;;;;;;5051659;28;19994;-61
2021/08/20 05:15:22;;;;;;;;;;;15.30;93.00;;;;;;5050911;28;20477;-62
2021/08/20 05:17:48;;;;;;;;;;;15.40;93.00;;;;;;5032979;28;19917;-61
2021/08/20 05:20:13;;;;;;;;;;;15.40;93.00;;;;;;5033806;28;19924;-61
2021/08/20 05:22:47;;;;;;;;;;;15.40;92.90;;;;;;5051563;28;19924;-62
2021/08/20 05:25:13;;;;;;;;;;;15.50;92.90;;;;;;5058056;28;20335;-62
2021/08/20 05:27:39;;;;;;;;;;;15.50;92.90;;;;;;5058030;28;19935;-63
2021/08/20 05:30:05;;;;;;;;;;;15.50;92.80;;;;;;5040107;28;20024;-61
2021/08/20 05:32:30;;;;;;;;;;;15.50;92.90;;;;;;5058252;28;19940;-62
2021/08/20 05:34:56;;;;;;;;;;;15.40;92.90;;;;;;5044083;28;19920;-63
2021/08/20 05:37:21;;;;;;;;;;;15.50;93.00;;;;;;5041460;28;19921;-62
2021/08/20 05:39:47;;;;;;;;;;;15.50;93.10;;;;;;5058363;28;19917;-62
2021/08/20 05:42:12;;;;;;;;;;;15.60;93.10;;;;;;5057516;28;19928;-61
2021/08/20 05:44:38;;;;;;;;;;;15.50;93.00;;;;;;5057932;28;20438;-62
2021/08/20 05:47:03;;;;;;;;;;;15.60;93.00;;;;;;5057616;28;19917;-62
2021/08/20 05:49:29;;;;;;;;;;;15.70;93.00;;;;;;5039649;28;19959;-61
2021/08/20 05:51:54;;;;;;;;;;;15.70;93.00;;;;;;5058073;28;19917;-64
2021/08/20 05:54:20;;;;;;;;;;;15.70;93.00;;;;;;5039813;28;19924;-62
2021/08/20 05:56:46;;;;;;;;;;;15.80;93.10;;;;;;5056984;28;19925;-61
2021/08/20 05:59:12;;;;;;;;;;;15.80;93.10;;;;;;5058162;28;20379;-62
2021/08/20 06:01:37;;;;;;;;;;;15.90;93.10;;;;;;5057201;28;19925;-61
2021/08/20 06:04:04;;;;;;;;;;;15.90;93.10;;;;;;5039577;28;19956;-61
2021/08/20 06:06:38;;;;;;;;;;;16.00;93.10;;;;;;5039634;28;19955;-61
2021/08/20 06:09:04;;;;;;;;;;;16.10;93.20;;;;;;5039230;28;19943;-61
2021/08/20 06:11:29;;;;;;;;;;;16.10;93.10;;;;;;5057638;28;20003;-61
2021/08/20 06:13:55;;;;;;;;;;;16.30;93.10;;;;;;5039079;28;19921;-61
2021/08/20 06:16:20;;;;;;;;;;;16.30;93.10;;;;;;5057300;28;19943;-61
2021/08/20 06:18:46;;;;;;;;;;;16.40;93.00;;;;;;5057095;28;19959;-59
2021/08/20 06:21:12;;;;;;;;;;;16.40;92.90;;;;;;5056701;28;19959;-59
2021/08/20 06:23:37;;;;;;;;;;;16.40;92.80;;;;;;5057169;28;19925;-59
2021/08/20 06:26:03;;;;;;;;;;;16.50;92.70;;;;;;5057491;28;19995;-59
2021/08/20 06:28:30;;;;;;;;;;;16.50;92.70;;;;;;5056628;28;19924;-59
2021/08/20 06:30:56;;;;;;;;;;;16.50;92.80;;;;;;5056065;28;19917;-59
2021/08/20 06:33:22;;;;;;;;;;;16.60;92.80;;;;;;5039531;28;19921;-59
2021/08/20 06:35:47;;;;;;;;;;;16.60;92.90;;;;;;5053761;28;20008;-59
2021/08/20 06:38:13;;;;;;;;;;;16.70;92.90;;;;;;5036114;28;19917;-59
2021/08/20 06:40:38;;;;;;;;;;;16.80;92.80;;;;;;5053682;28;20012;-62
2021/08/20 06:43:04;;;;;;;;;;;16.90;92.80;;;;;;5054144;28;19916;-60
2021/08/20 06:45:29;;;;;;;;;;;17.00;92.70;;;;;;5053918;28;19987;-60
2021/08/20 06:47:55;;;;;;;;;;;17.10;92.50;;;;;;5052942;28;19924;-60
2021/08/20 06:50:21;;;;;;;;;;;17.10;92.50;;;;;;5038535;28;19977;-59
2021/08/20 06:52:46;;;;;;;;;;;17.10;92.30;;;;;;5062707;28;19963;-59
2021/08/20 06:55:12;;;;;;;;;;;17.10;92.10;;;;;;5062723;28;19916;-60
2021/08/20 06:57:37;;;;;;;;;;;17.10;92.10;;;;;;5045895;28;19923;-60
2021/08/20 07:00:03;;;;;;;;;;;17.10;92.10;;;;;;5043985;28;19995;-60
2021/08/20 07:02:29;;;;;;;;;;;17.00;92.00;;;;;;5045116;28;20381;-59
2021/08/20 07:04:55;;;;;;;;;;;17.00;91.90;;;;;;5044682;28;20012;-61
2021/08/20 07:07:20;;;;;;;;;;;17.00;92.00;;;;;;5060688;28;19940;-59
2021/08/20 07:09:46;;;;;;;;;;;17.10;92.00;;;;;;5061957;28;19943;-60
2021/08/20 07:12:11;;;;;;;;;;;17.10;91.80;;;;;;5061799;28;19983;-61
2021/08/20 07:14:37;;;;;;;;;;;17.10;91.60;;;;;;5059690;28;19942;-59
2021/08/20 07:17:02;;;;;;;;;;;17.00;91.50;;;;;;5062380;28;19916;-59
2021/08/20 07:19:28;;;;;;;;;;;17.00;91.60;;;;;;5059827;28;19916;-62
2021/08/20 07:21:53;;;;;;;;;;;16.90;91.70;;;;;;5054991;28;20385;-63
2021/08/20 07:24:19;;;;;;;;;;;17.00;91.70;;;;;;5060783;28;19931;-62
2021/08/20 07:26:45;;;;;;;;;;;17.00;91.80;;;;;;5045017;28;19916;-61
2021/08/20 07:29:10;;;;;;;;;;;17.20;91.90;;;;;;5062437;28;19917;-62
2021/08/20 07:31:36;;;;;;;;;;;17.30;91.90;;;;;;5060978;28;20472;-63
2021/08/20 07:34:02;;;;;;;;;;;17.40;91.90;;;;;;5063009;28;20454;-61
2021/08/20 07:36:27;;;;;;;;;;;17.70;92.20;;;;;;5061926;28;19916;-62
2021/08/20 07:38:53;;;;;;;;;;;18.20;92.90;;;;;;5052819;28;20284;-62
2021/08/20 07:41:18;;;;;;;;;;;18.90;93.30;;;;;;5060752;28;19970;-62
2021/08/20 07:43:44;;;;;;;;;;;19.30;92.20;;;;;;5063187;28;19924;-62
2021/08/20 07:46:09;;;;;;;;;;;19.50;91.10;;;;;;5061122;28;19917;-64
2021/08/20 07:48:35;;;;;;;;;;;19.40;90.20;;;;;;5060831;28;20136;-62
2021/08/20 07:51:01;;;;;;;;;;;19.20;89.30;;;;;;5049703;28;19916;-65
2021/08/20 07:53:26;;;;;;;;;;;18.90;88.70;;;;;;5053612;28;19916;-65
2021/08/20 07:55:53;;;;;;;;;;;18.70;88.70;;;;;;5013674;28;19980;-68
2021/08/20 07:58:19;;;;;;;;;;;18.60;88.50;;;;;;5050219;28;19963;-63
2021/08/20 08:00:44;;;;;;;;;;;18.30;88.80;;;;;;5052099;28;19959;-64
2021/08/20 08:03:11;;;;;;;;;;;18.20;88.50;;;;;;5034568;28;19924;-66
2021/08/20 08:05:36;;;;;;;;;;;18.00;87.90;;;;;;5052257;28;19921;-66
2021/08/20 08:08:02;;;;;;;;;;;17.80;88.60;;;;;;5048225;28;20377;-62
2021/08/20 08:10:28;;;;;;;;;;;17.70;89.00;;;;;;5034294;28;19978;-60
2021/08/20 08:12:54;;;;;;;;;;;17.70;89.10;;;;;;5034352;28;19966;-60
2021/08/20 08:15:20;;;;;;;;;;;17.80;89.90;;;;;;5051280;28;19923;-61
2021/08/20 08:17:46;;;;;;;;;;;18.10;90.40;;;;;;5051081;28;19916;-60
2021/08/20 08:20:13;;;;;;;;;;;18.30;90.30;;;;;;5051531;28;20448;-60
2021/08/20 08:22:38;;;;;;;;;;;18.40;89.70;;;;;;5051857;28;19947;-59
2021/08/20 08:25:05;;;;;;;;;;;18.40;88.20;;;;;;5051679;28;19917;-59
2021/08/20 08:27:30;;;;;;;;;;;18.20;87.70;;;;;;5033045;28;19917;-59
2021/08/20 08:29:56;;;;;;;;;;;18.00;87.80;;;;;;5033925;28;19917;-59
2021/08/20 08:32:21;;;;;;;;;;;17.90;87.80;;;;;;5051369;28;20333;-59
2021/08/20 08:34:47;;;;;;;;;;;17.70;87.70;;;;;;5051117;28;19939;-60
2021/08/20 08:37:13;;;;;;;;;;;17.60;88.40;;;;;;5051632;28;19955;-59
2021/08/20 08:39:38;;;;;;;;;;;17.70;89.50;;;;;;5056661;28;19916;-59
2021/08/20 08:42:04;;;;;;;;;;;18.10;90.50;;;;;;5054474;28;19940;-59
2021/08/20 08:44:30;;;;;;;;;;;18.70;91.30;;;;;;5051040;28;20360;-59
2021/08/20 08:46:56;;;;;;;;;;;19.30;91.00;;;;;;5049672;28;19992;-60
2021/08/20 08:49:22;;;;;;;;;;;19.70;90.10;;;;;;5051307;28;19917;-59
2021/08/20 08:51:48;;;;;;;;;;;19.80;88.60;;;;;;5051485;28;20079;-60
2021/08/20 08:54:14;;;;;;;;;;;19.80;87.40;;;;;;5050820;28;19917;-60
2021/08/20 08:56:43;;;;;;;;;;;19.70;86.70;;;;;;5051225;28;19917;-60
2021/08/20 08:59:09;;;;;;;;;;;19.70;87.10;;;;;;5050433;28;19917;-60
2021/08/20 09:01:37;;;;;;;;;;;19.90;87.20;;;;;;5045254;28;19927;-60
2021/08/20 09:04:06;;;;;;;;;;;20.00;86.40;;;;;;5043525;28;19916;-59
2021/08/20 09:06:39;;;;;;;;;;;20.00;85.40;;;;;;5049730;28;19917;-60
2021/08/20 09:09:15;;;;;;;;;;;19.90;85.50;;;;;;5050280;28;20411;-59
2021/08/20 09:11:41;;;;;;;;;;;20.10;86.10;;;;;;5050325;28;19920;-59
2021/08/20 09:14:07;;;;;;;;;;;20.10;84.70;;;;;;5050426;28;19913;-59
2021/08/20 09:16:38;;;;;;;;;;;19.90;83.40;;;;;;5032647;28;19917;-59
2021/08/20 09:19:08;;;;;;;;;;;19.50;82.60;;;;;;5049856;28;20403;-59
2021/08/20 09:21:34;;;;;;;;;;;19.20;83.00;;;;;;5049393;28;19976;-60
2021/08/20 09:24:00;;;;;;;;;;;18.90;83.30;;;;;;5037792;28;19956;-60
2021/08/20 09:26:25;;;;;;;;;;;18.80;84.50;;;;;;5050657;28;19921;-59
2021/08/20 09:28:51;;;;;;;;;;;18.80;84.60;;;;;;5046192;28;19931;-59
2021/08/20 09:31:16;;;;;;;;;;;18.80;84.40;;;;;;5050070;28;19917;-59
2021/08/20 09:33:42;;;;;;;;;;;18.80;85.30;;;;;;5050379;28;19999;-60
2021/08/20 09:36:09;;;;;;;;;;;19.20;87.00;;;;;;5048837;28;20172;-59
2021/08/20 09:38:48;;;;;;;;;;;19.80;87.50;;;;;;5016746;28;19917;-59
2021/08/20 09:41:17;;;;;;;;;;;20.10;85.30;;;;;;5012958;28;20295;-60
2021/08/20 09:43:46;;;;;;;;;;;20.10;83.60;;;;;;5049306;28;19924;-59
2021/08/20 09:46:16;;;;;;;;;;;20.00;83.30;;;;;;5047538;28;19917;-60
2021/08/20 09:48:52;;;;;;;;;;;20.20;84.80;;;;;;5048347;28;19983;-59
2021/08/20 09:51:30;;;;;;;;;;;20.70;85.40;;;;;;5047852;28;20054;-59
2021/08/20 09:53:56;;;;;;;;;;;21.20;84.70;;;;;;5048779;28;19925;-59
2021/08/20 09:56:22;;;;;;;;;;;21.40;82.50;;;;;;5050846;28;19924;-59
2021/08/20 09:58:47;;;;;;;;;;;21.40;81.50;;;;;;5032126;28;19929;-60
2021/08/20 10:01:13;;;;;;;;;;;21.00;80.40;;;;;;5048528;28;20277;-59
2021/08/20 10:03:38;;;;;;;;;;;20.90;79.80;;;;;;5049381;28;19970;-59
2021/08/20 10:06:04;;;;;;;;;;;20.50;79.60;;;;;;5049295;28;19924;-59
2021/08/20 10:08:32;;;;;;;;;;;20.30;79.80;;;;;;5049611;28;19939;-58
2021/08/20 10:10:58;;;;;;;;;;;20.00;79.80;;;;;;5052538;28;19958;-59
2021/08/20 10:13:24;;;;;;;;;;;19.80;80.40;;;;;;5053013;28;19921;-58
2021/08/20 10:15:50;;;;;;;;;;;19.60;80.30;;;;;;5034772;28;19917;-58
2021/08/20 10:18:16;;;;;;;;;;;19.40;80.30;;;;;;5052294;28;19927;-59
2021/08/20 10:20:43;;;;;;;;;;;19.20;80.70;;;;;;5052352;28;19913;-59
2021/08/20 10:23:12;;;;;;;;;;;19.00;80.90;;;;;;5052482;28;19952;-59
2021/08/20 10:25:37;;;;;;;;;;;18.90;81.50;;;;;;5052045;28;19917;-59
2021/08/20 10:28:03;;;;;;;;;;;18.80;82.10;;;;;;5053334;28;19923;-59
2021/08/20 10:30:29;;;;;;;;;;;18.80;82.90;;;;;;5053255;28;19955;-59
2021/08/20 10:32:59;;;;;;;;;;;19.00;83.90;;;;;;5053880;28;20011;-59
2021/08/20 10:35:43;;;;;;;;;;;19.10;84.00;;;;;;5054115;28;20225;-59
2021/08/20 10:38:22;;;;;;;;;;;19.20;84.20;;;;;;5035799;28;19921;-59
2021/08/20 10:41:05;;;;;;;;;;;19.20;83.70;;;;;;5053652;28;19924;-60
2021/08/20 10:43:49;;;;;;;;;;;19.40;84.70;;;;;;5053933;28;19916;-60
2021/08/20 10:46:33;;;;;;;;;;;20.30;88.40;;;;;;5053156;28;19916;-59
2021/08/20 10:49:11;;;;;;;;;;;21.00;86.60;;;;;;5035947;28;19917;-59
2021/08/20 10:51:49;;;;;;;;;;;21.20;84.00;;;;;;5053500;28;19917;-60
2021/08/20 10:54:36;;;;;;;;;;;21.30;83.70;;;;;;5053424;28;19923;-61
2021/08/20 10:57:03;;;;;;;;;;;21.40;82.90;;;;;;5003866;28;20376;-59
2021/08/20 10:59:43;;;;;;;;;;;21.30;81.50;;;;;;5053681;28;19917;-59
2021/08/20 11:02:18;;;;;;;;;;;21.10;80.10;;;;;;5035326;28;20308;-59
2021/08/20 11:05:02;;;;;;;;;;;20.70;79.90;;;;;;5053166;28;20043;-59
2021/08/20 11:07:46;;;;;;;;;;;20.50;81.00;;;;;;5052894;28;19917;-59
2021/08/20 11:10:11;;;;;;;;;;;20.30;81.00;;;;;;5034539;28;19970;-59
2021/08/20 11:12:46;;;;;;;;;;;20.20;81.10;;;;;;5051509;28;19917;-61
2021/08/20 11:15:18;;;;;;;;;;;20.10;81.70;;;;;;5033806;28;19924;-63
2021/08/20 11:17:51;;;;;;;;;;;21.50;88.60;;;;;;5046147;28;19952;-63
2021/08/20 11:20:18;;;;;;;;;;;24.50;90.70;;;;;;5030584;28;19924;-63
2021/08/20 11:22:44;;;;;;;;;;;27.40;85.70;;;;;;5032347;28;19917;-63
2021/08/20 11:25:10;;;;;;;;;;;27.50;77.60;;;;;;5033121;28;19921;-60
2021/08/20 11:27:36;;;;;;;;;;;26.50;72.00;;;;;;5032183;28;19917;-61
2021/08/20 11:30:03;;;;;;;;;;;25.30;70.40;;;;;;5033037;28;19917;-59
2021/08/20 11:32:28;;;;;;;;;;;24.10;70.50;;;;;;5033094;28;19982;-60
2021/08/20 11:34:54;;;;;;;;;;;23.10;71.00;;;;;;5032483;28;20373;-60
2021/08/20 11:37:19;;;;;;;;;;;22.30;72.20;;;;;;5032707;28;19917;-59
2021/08/20 11:40:06;;;;;;;;;;;21.70;73.70;;;;;;5033007;28;20510;-60
2021/08/20 11:42:31;;;;;;;;;;;22.10;79.40;;;;;;5032394;28;20019;-60
2021/08/20 11:44:57;;;;;;;;;;;24.80;83.10;;;;;;5032719;28;20007;-60
2021/08/20 11:47:22;;;;;;;;;;;26.00;78.20;;;;;;5032225;28;19917;-61
2021/08/20 11:49:48;;;;;;;;;;;26.40;73.80;;;;;;5032959;28;19917;-60
2021/08/20 11:52:14;;;;;;;;;;;25.90;70.00;;;;;;5014908;28;19928;-60
2021/08/20 11:54:40;;;;;;;;;;;24.90;68.10;;;;;;5014260;28;20016;-60
2021/08/20 11:57:05;;;;;;;;;;;23.90;67.50;;;;;;5032356;28;19917;-59
2021/08/20 11:59:31;;;;;;;;;;;22.80;68.90;;;;;;5032498;28;19917;-59
2021/08/20 12:01:57;;;;;;;;;;;21.80;70.00;;;;;;5031831;28;20079;-59
2021/08/20 12:04:23;;;;;;;;;;;21.10;71.20;;;;;;5032354;28;20349;-59
2021/08/20 12:06:49;;;;;;;;;;;20.40;72.50;;;;;;5032104;28;19971;-59
2021/08/20 12:09:17;;;;;;;;;;;19.90;74.10;;;;;;5031530;28;19944;-59
2021/08/20 12:11:48;;;;;;;;;;;19.60;75.40;;;;;;5031066;28;19917;-59
2021/08/20 12:14:20;;;;;;;;;;;19.50;76.90;;;;;;5023306;28;19917;-59
2021/08/20 12:16:47;;;;;;;;;;;19.50;77.80;;;;;;5048562;28;19924;-59
2021/08/20 12:19:15;;;;;;;;;;;19.50;78.60;;;;;;5049483;28;19991;-59
2021/08/20 12:21:44;;;;;;;;;;;19.70;79.00;;;;;;5050803;28;19925;-59
2021/08/20 12:24:10;;;;;;;;;;;19.90;79.20;;;;;;5049911;28;19917;-59
2021/08/20 12:26:36;;;;;;;;;;;20.20;79.90;;;;;;5051187;28;19943;-59
2021/08/20 12:29:15;;;;;;;;;;;20.50;80.60;;;;;;5051723;28;19975;-59
2021/08/20 12:31:53;;;;;;;;;;;20.90;80.10;;;;;;5016860;28;19916;-60
2021/08/20 12:34:25;;;;;;;;;;;21.20;79.80;;;;;;5032894;28;19924;-59
2021/08/20 12:36:54;;;;;;;;;;;21.50;79.80;;;;;;5050894;28;19921;-60
2021/08/20 12:39:19;;;;;;;;;;;21.90;79.50;;;;;;5051561;28;19916;-60
2021/08/20 12:41:45;;;;;;;;;;;22.10;78.60;;;;;;5051120;28;20392;-60
2021/08/20 12:44:11;;;;;;;;;;;22.20;77.80;;;;;;5051200;28;20448;-59
2021/08/20 12:46:37;;;;;;;;;;;22.20;77.50;;;;;;5051231;28;19927;-59
2021/08/20 12:49:07;;;;;;;;;;;22.20;77.00;;;;;;5050741;28;20011;-60
2021/08/20 12:51:36;;;;;;;;;;;22.20;77.40;;;;;;5051310;28;19917;-60
2021/08/20 12:54:06;;;;;;;;;;;22.50;77.90;;;;;;5032625;28;19924;-61
2021/08/20 12:56:32;;;;;;;;;;;23.00;77.50;;;;;;5051233;28;19920;-60
2021/08/20 12:58:59;;;;;;;;;;;23.10;75.60;;;;;;5050944;28;20424;-60
2021/08/20 13:01:24;;;;;;;;;;;22.90;74.20;;;;;;5050652;28;19964;-60
2021/08/20 13:03:50;;;;;;;;;;;22.50;73.80;;;;;;5050853;28;19924;-59
2021/08/20 13:06:15;;;;;;;;;;;22.00;73.80;;;;;;5050789;28;19936;-60
2021/08/20 13:08:41;;;;;;;;;;;21.70;75.00;;;;;;5051010;28;19916;-59
2021/08/20 13:11:07;;;;;;;;;;;21.50;75.80;;;;;;5050977;28;19917;-59
2021/08/20 13:13:32;;;;;;;;;;;21.40;76.30;;;;;;5050644;28;19928;-60
2021/08/20 13:15:58;;;;;;;;;;;21.40;76.70;;;;;;5033215;28;19916;-60
2021/08/20 13:18:24;;;;;;;;;;;21.40;76.90;;;;;;5016597;28;19924;-60
2021/08/20 13:20:51;;;;;;;;;;;21.40;77.10;;;;;;5050579;28;19916;-60
2021/08/20 13:23:16;;;;;;;;;;;21.40;77.20;;;;;;5051048;28;19971;-60
2021/08/20 13:25:42;;;;;;;;;;;21.30;77.10;;;;;;5050310;28;19924;-61
2021/08/20 13:28:08;;;;;;;;;;;21.20;76.70;;;;;;5050643;28;19935;-60
2021/08/20 13:30:35;;;;;;;;;;;21.00;77.20;;;;;;5050934;28;19959;-60
2021/08/20 13:33:01;;;;;;;;;;;20.90;78.20;;;;;;5050549;28;19943;-60
2021/08/20 13:35:26;;;;;;;;;;;21.10;79.30;;;;;;5050611;28;19917;-60
2021/08/20 13:37:52;;;;;;;;;;;21.40;79.10;;;;;;5032705;28;19917;-60
2021/08/20 13:40:17;;;;;;;;;;;21.40;78.40;;;;;;5050320;28;19921;-60
2021/08/20 13:42:43;;;;;;;;;;;21.40;78.30;;;;;;5050893;28;19921;-60
2021/08/20 13:45:10;;;;;;;;;;;21.50;78.20;;;;;;5053374;28;19917;-60
2021/08/20 13:47:36;;;;;;;;;;;21.30;77.30;;;;;;5054163;28;19969;-60
2021/08/20 13:50:03;;;;;;;;;;;21.20;77.20;;;;;;5054583;28;19916;-59
2021/08/20 13:52:30;;;;;;;;;;;21.00;76.90;;;;;;5036270;28;19924;-60
2021/08/20 13:54:55;;;;;;;;;;;20.90;77.10;;;;;;5054387;28;19925;-59
2021/08/20 13:57:21;;;;;;;;;;;20.80;77.20;;;;;;5036431;28;20361;-60
2021/08/20 13:59:46;;;;;;;;;;;20.70;77.20;;;;;;5053962;28;19921;-60
2021/08/20 14:02:13;;;;;;;;;;;20.70;76.80;;;;;;5054283;28;19927;-60
2021/08/20 14:04:39;;;;;;;;;;;20.50;77.00;;;;;;5054366;28;20285;-60
2021/08/20 14:07:05;;;;;;;;;;;20.40;77.10;;;;;;5053749;28;19917;-60
2021/08/20 14:09:31;;;;;;;;;;;20.40;77.30;;;;;;5054202;28;20004;-60
2021/08/20 14:11:57;;;;;;;;;;;20.30;76.90;;;;;;5073051;22;19929;-64
2021/08/20 14:14:22;;;;;;;;;;;20.30;77.10;;;;;;5054245;28;20269;-62
2021/08/20 14:16:48;;;;;;;;;;;20.20;77.40;;;;;;5054049;28;19921;-63
2021/08/20 14:19:14;;;;;;;;;;;20.30;77.60;;;;;;5053887;28;20293;-64
2021/08/20 14:21:39;;;;;;;;;;;20.30;77.40;;;;;;5054100;28;19921;-64